Mr. Roland — WDG6848 — position and weather

sailwx.info

Track history (hours):
 
Tides and Currents Weather Stations Pressure Air Temp Water Temp Dewpoint Dewpoint Depression Visibility Wind Speed Wind Dir Waves Ship Positions

Mr. Roland

Owner: T. K. TOWING, INC, MORGAN CITY, LA. More information available from US FCC via Universal Licensing System and Coast Guard Vessel Documentation Center.

Last reported at 2017-Nov-14 19:02 UTC. Time now 2017-Nov-21 13:41 UTC.
Position N 29°32' W 090°50'.

Length 20 m; draft 2 m.

Type: Other ship. MMSI: 367561320.

Date/timePositionNaut miles runAvg speedWind from/ knotsBaromVisibWave heightAir tempDewpointWater temp
2017-Nov-14 19:02N 29°32' W 090°50'0 6.4
2017-Nov-14 19:00N 29°32' W 090°50'3 6.3
2017-Nov-14 18:31N 29°32' W 090°47'3 5.7
2017-Nov-14 18:01N 29°34' W 090°44'3 5.2
2017-Nov-14 17:31N 29°36' W 090°43'1 2.8
2017-Nov-14 17:00N 29°36' W 090°41'3 5.8
2017-Nov-14 16:30N 29°35' W 090°38'3 5.7
2017-Nov-14 16:00N 29°34' W 090°35'3 6.0
2017-Nov-14 15:30N 29°34' W 090°31'3 0.2
2017-Nov-14 04:12N 29°34' W 090°28'1 6.9
2017-Nov-14 04:00N 29°34' W 090°30'3 6.8
2017-Nov-14 03:30N 29°34' W 090°34'3 6.2
2017-Nov-14 03:00N 29°35' W 090°37'3 5.9
2017-Nov-14 02:30N 29°36' W 090°40'2 4.2
2017-Nov-14 02:00N 29°36' W 090°43'3 5.6
2017-Nov-14 01:30N 29°34' W 090°45'3 5.6
2017-Nov-14 01:01N 29°32' W 090°47'4 7.0
2017-Nov-14 00:30N 29°32' W 090°51'5 6.6
2017-Nov-13 23:49N 29°34' W 090°56'  
2017-Nov-11 16:10N 29°32' W 090°50'1 6.8
2017-Nov-11 15:59N 29°32' W 090°49'3 6.6
2017-Nov-11 15:30N 29°33' W 090°45'3 5.1
2017-Nov-11 15:01N 29°34' W 090°43'3 6.8
2017-Nov-11 14:31N 29°31' W 090°43'4 7.2
2017-Nov-11 14:00N 29°27' W 090°43'3 6.5
2017-Nov-11 13:29N 29°24' W 090°44'2 5.1
2017-Nov-11 13:00N 29°25' W 090°47'4 0.4
2017-Nov-11 04:17N 29°25' W 090°51'2 3.8
2017-Nov-11 03:49N 29°25' W 090°49'1 3.8
2017-Nov-11 03:30N 29°25' W 090°47'2 4.0
2017-Nov-11 02:55N 29°24' W 090°45'1 2.1
2017-Nov-11 02:19N 29°24' W 090°44'2 6.3
2017-Nov-11 02:00N 29°26' W 090°43'3 6.2
2017-Nov-11 01:30N 29°29' W 090°43'3 6.2
2017-Nov-11 01:01N 29°32' W 090°42'2 4.0
2017-Nov-11 00:31N 29°34' W 090°43'1 1.0
2017-Nov-11 00:00N 29°34' W 090°43'3 5.0
2017-Nov-10 23:31N 29°32' W 090°46'3 5.5
2017-Nov-10 23:00N 29°32' W 090°49'4 6.0
2017-Nov-10 22:18N 29°33' W 090°54'2 6.0
2017-Nov-10 21:56N 29°34' W 090°56'  
Track history (hours):
 
Tides and Currents Weather Stations Pressure Air Temp Water Temp Dewpoint Dewpoint Depression Visibility Wind Speed Wind Dir Waves Ship Positions

Mr. Roland

Owner: T. K. TOWING, INC, MORGAN CITY, LA. More information available from US FCC via Universal Licensing System and Coast Guard Vessel Documentation Center.

Last reported at 2017-Nov-14 19:02 UTC. Time now 2017-Nov-21 13:41 UTC.
Position N 29°32' W 090°50'.

Length 20 m; draft 2 m.

Type: Other ship. MMSI: 367561320.

Date/timePositionNaut miles runAvg speedWind from/ knotsBaromVisibWave heightAir tempDewpointWater temp
2017-Nov-14 19:02N 29°32' W 090°50'0 6.4
2017-Nov-14 19:00N 29°32' W 090°50'3 6.3
2017-Nov-14 18:31N 29°32' W 090°47'3 5.7
2017-Nov-14 18:01N 29°34' W 090°44'3 5.2
2017-Nov-14 17:31N 29°36' W 090°43'1 2.8
2017-Nov-14 17:00N 29°36' W 090°41'3 5.8
2017-Nov-14 16:30N 29°35' W 090°38'3 5.7
2017-Nov-14 16:00N 29°34' W 090°35'3 6.0
2017-Nov-14 15:30N 29°34' W 090°31'3 0.2
2017-Nov-14 04:12N 29°34' W 090°28'1 6.9
2017-Nov-14 04:00N 29°34' W 090°30'3 6.8
2017-Nov-14 03:30N 29°34' W 090°34'3 6.2
2017-Nov-14 03:00N 29°35' W 090°37'3 5.9
2017-Nov-14 02:30N 29°36' W 090°40'2 4.2
2017-Nov-14 02:00N 29°36' W 090°43'3 5.6
2017-Nov-14 01:30N 29°34' W 090°45'3 5.6
2017-Nov-14 01:01N 29°32' W 090°47'4 7.0
2017-Nov-14 00:30N 29°32' W 090°51'5 6.6
2017-Nov-13 23:49N 29°34' W 090°56'  
2017-Nov-11 16:10N 29°32' W 090°50'1 6.8
2017-Nov-11 15:59N 29°32' W 090°49'3 6.6
2017-Nov-11 15:30N 29°33' W 090°45'3 5.1
2017-Nov-11 15:01N 29°34' W 090°43'3 6.8
2017-Nov-11 14:31N 29°31' W 090°43'4 7.2
2017-Nov-11 14:00N 29°27' W 090°43'3 6.5
2017-Nov-11 13:29N 29°24' W 090°44'2 5.1
2017-Nov-11 13:00N 29°25' W 090°47'4 0.4
2017-Nov-11 04:17N 29°25' W 090°51'2 3.8
2017-Nov-11 03:49N 29°25' W 090°49'1 3.8
2017-Nov-11 03:30N 29°25' W 090°47'2 4.0
2017-Nov-11 02:55N 29°24' W 090°45'1 2.1
2017-Nov-11 02:19N 29°24' W 090°44'2 6.3
2017-Nov-11 02:00N 29°26' W 090°43'3 6.2
2017-Nov-11 01:30N 29°29' W 090°43'3 6.2
2017-Nov-11 01:01N 29°32' W 090°42'2 4.0
2017-Nov-11 00:31N 29°34' W 090°43'1 1.0
2017-Nov-11 00:00N 29°34' W 090°43'3 5.0
2017-Nov-10 23:31N 29°32' W 090°46'3 5.5
2017-Nov-10 23:00N 29°32' W 090°49'4 6.0
2017-Nov-10 22:18N 29°33' W 090°54'2 6.0
2017-Nov-10 21:56N 29°34' W 090°56'  

Dump ship's entire track history